sensor_id;sensor_type;location;lat;lon;timestamp;pressure;altitude;pressure_sealevel;temperature;humidity
740;BME280;354;42.694;23.336;2023-04-20T00:01:53;94931.81;;;10.16;100.00
740;BME280;354;42.694;23.336;2023-04-20T00:04:19;94930.59;;;10.19;100.00
740;BME280;354;42.694;23.336;2023-04-20T00:06:44;94929.75;;;10.25;100.00
740;BME280;354;42.694;23.336;2023-04-20T00:09:13;94929.97;;;10.23;100.00
740;BME280;354;42.694;23.336;2023-04-20T00:11:39;94921.44;;;10.21;100.00
740;BME280;354;42.694;23.336;2023-04-20T00:14:05;94927.69;;;10.27;100.00
740;BME280;354;42.694;23.336;2023-04-20T00:16:31;94924.91;;;10.22;100.00
740;BME280;354;42.694;23.336;2023-04-20T00:18:58;94918.31;;;10.13;100.00
740;BME280;354;42.694;23.336;2023-04-20T00:21:24;94916.09;;;10.10;100.00
740;BME280;354;42.694;23.336;2023-04-20T00:23:50;94920.28;;;10.17;100.00
740;BME280;354;42.694;23.336;2023-04-20T00:26:16;94922.16;;;10.10;100.00
740;BME280;354;42.694;23.336;2023-04-20T00:28:42;94926.03;;;10.08;100.00
740;BME280;354;42.694;23.336;2023-04-20T00:31:08;94918.84;;;9.96;100.00
740;BME280;354;42.694;23.336;2023-04-20T00:33:33;94925.47;;;9.99;100.00
740;BME280;354;42.694;23.336;2023-04-20T00:35:59;94915.63;;;9.94;100.00
740;BME280;354;42.694;23.336;2023-04-20T00:38:24;94921.69;;;9.95;100.00
740;BME280;354;42.694;23.336;2023-04-20T00:40:50;94916.22;;;9.96;100.00
740;BME280;354;42.694;23.336;2023-04-20T00:43:19;94919.06;;;9.95;100.00
740;BME280;354;42.694;23.336;2023-04-20T00:45:45;94917.25;;;9.95;100.00
740;BME280;354;42.694;23.336;2023-04-20T00:48:11;94914.81;;;9.94;100.00
740;BME280;354;42.694;23.336;2023-04-20T00:50:38;94912.56;;;9.97;100.00
740;BME280;354;42.694;23.336;2023-04-20T00:53:04;94913.00;;;9.94;100.00
740;BME280;354;42.694;23.336;2023-04-20T00:55:31;94911.38;;;9.93;100.00
740;BME280;354;42.694;23.336;2023-04-20T00:57:57;94892.53;;;9.78;100.00
740;BME280;354;42.694;23.336;2023-04-20T01:00:23;94912.00;;;9.89;100.00
740;BME280;354;42.694;23.336;2023-04-20T01:02:49;94892.53;;;9.78;100.00
740;BME280;354;42.694;23.336;2023-04-20T01:05:15;94912.69;;;9.84;100.00
740;BME280;354;42.694;23.336;2023-04-20T01:07:40;94901.38;;;9.84;100.00
740;BME280;354;42.694;23.336;2023-04-20T01:10:06;94901.00;;;9.80;100.00
740;BME280;354;42.694;23.336;2023-04-20T01:12:33;94896.16;;;9.77;100.00
740;BME280;354;42.694;23.336;2023-04-20T01:14:58;94911.88;;;9.84;100.00
740;BME280;354;42.694;23.336;2023-04-20T01:17:24;94907.25;;;9.79;100.00
740;BME280;354;42.694;23.336;2023-04-20T01:19:49;94908.06;;;9.80;100.00
740;BME280;354;42.694;23.336;2023-04-20T01:22:19;94910.84;;;9.85;100.00
740;BME280;354;42.694;23.336;2023-04-20T01:24:44;94906.66;;;9.77;100.00
740;BME280;354;42.694;23.336;2023-04-20T01:27:10;94906.06;;;9.75;100.00
740;BME280;354;42.694;23.336;2023-04-20T01:29:36;94888.16;;;9.65;100.00
740;BME280;354;42.694;23.336;2023-04-20T01:32:02;94900.44;;;9.71;100.00
740;BME280;354;42.694;23.336;2023-04-20T01:34:28;94909.94;;;9.72;100.00
740;BME280;354;42.694;23.336;2023-04-20T01:36:53;94897.00;;;9.71;100.00
740;BME280;354;42.694;23.336;2023-04-20T01:39:18;94886.50;;;9.71;100.00
740;BME280;354;42.694;23.336;2023-04-20T01:41:44;94891.91;;;9.76;100.00
740;BME280;354;42.694;23.336;2023-04-20T01:44:10;94898.78;;;9.77;100.00
740;BME280;354;42.694;23.336;2023-04-20T01:46:38;94891.91;;;9.76;100.00
740;BME280;354;42.694;23.336;2023-04-20T01:49:05;94883.28;;;9.69;100.00
740;BME280;354;42.694;23.336;2023-04-20T01:51:31;94887.94;;;9.67;100.00
740;BME280;354;42.694;23.336;2023-04-20T01:53:57;94864.84;;;9.50;100.00
740;BME280;354;42.694;23.336;2023-04-20T01:56:23;94888.63;;;9.56;100.00
740;BME280;354;42.694;23.336;2023-04-20T01:58:48;94883.59;;;9.54;100.00
740;BME280;354;42.694;23.336;2023-04-20T02:01:14;94888.63;;;9.56;100.00
740;BME280;354;42.694;23.336;2023-04-20T02:03:39;94882.22;;;9.52;100.00
740;BME280;354;42.694;23.336;2023-04-20T02:06:05;94886.28;;;9.47;100.00
740;BME280;354;42.694;23.336;2023-04-20T02:08:31;94880.38;;;9.52;100.00
740;BME280;354;42.694;23.336;2023-04-20T02:10:57;94852.50;;;9.26;100.00
740;BME280;354;42.694;23.336;2023-04-20T02:13:23;94871.84;;;9.32;100.00
740;BME280;354;42.694;23.336;2023-04-20T02:15:48;94882.47;;;9.43;100.00
740;BME280;354;42.694;23.336;2023-04-20T02:18:13;94883.47;;;9.42;100.00
740;BME280;354;42.694;23.336;2023-04-20T02:20:41;94886.22;;;9.54;100.00
740;BME280;354;42.694;23.336;2023-04-20T02:23:06;94893.50;;;9.52;100.00
740;BME280;354;42.694;23.336;2023-04-20T02:25:32;94884.63;;;9.53;100.00
740;BME280;354;42.694;23.336;2023-04-20T02:27:57;94877.00;;;9.45;100.00
740;BME280;354;42.694;23.336;2023-04-20T02:30:22;94887.47;;;9.52;100.00
740;BME280;354;42.694;23.336;2023-04-20T02:32:48;94891.81;;;9.64;100.00
740;BME280;354;42.694;23.336;2023-04-20T02:35:13;94872.03;;;9.62;100.00
740;BME280;354;42.694;23.336;2023-04-20T02:37:38;94892.38;;;9.66;100.00
740;BME280;354;42.694;23.336;2023-04-20T02:40:06;94889.75;;;9.66;100.00
740;BME280;354;42.694;23.336;2023-04-20T02:42:32;94897.84;;;9.65;100.00
740;BME280;354;42.694;23.336;2023-04-20T02:44:58;94896.03;;;9.65;100.00
740;BME280;354;42.694;23.336;2023-04-20T02:47:23;94885.75;;;9.64;100.00
740;BME280;354;42.694;23.336;2023-04-20T02:49:48;94885.88;;;9.75;100.00
740;BME280;354;42.694;23.336;2023-04-20T02:52:14;94887.47;;;9.76;100.00
740;BME280;354;42.694;23.336;2023-04-20T02:54:40;94893.19;;;9.67;100.00
740;BME280;354;42.694;23.336;2023-04-20T02:57:05;94881.53;;;9.63;100.00
740;BME280;354;42.694;23.336;2023-04-20T02:59:31;94891.19;;;9.69;100.00
740;BME280;354;42.694;23.336;2023-04-20T03:01:56;94887.31;;;9.71;100.00
740;BME280;354;42.694;23.336;2023-04-20T03:04:21;94885.31;;;9.67;100.00
740;BME280;354;42.694;23.336;2023-04-20T03:06:48;94889.03;;;9.84;100.00
740;BME280;354;42.694;23.336;2023-04-20T03:09:14;94888.25;;;9.84;100.00
740;BME280;354;42.694;23.336;2023-04-20T03:11:40;94865.06;;;9.74;100.00
740;BME280;354;42.694;23.336;2023-04-20T03:14:05;94891.06;;;9.82;100.00
740;BME280;354;42.694;23.336;2023-04-20T03:16:31;94881.53;;;9.88;100.00
740;BME280;354;42.694;23.336;2023-04-20T03:18:56;94884.53;;;9.91;100.00
740;BME280;354;42.694;23.336;2023-04-20T03:21:22;94889.25;;;9.83;100.00
740;BME280;354;42.694;23.336;2023-04-20T03:23:47;94882.88;;;9.97;100.00
740;BME280;354;42.694;23.336;2023-04-20T03:26:13;94873.44;;;9.89;100.00
740;BME280;354;42.694;23.336;2023-04-20T03:28:39;94884.31;;;9.93;100.00
740;BME280;354;42.694;23.336;2023-04-20T03:31:05;94898.88;;;9.89;100.00
740;BME280;354;42.694;23.336;2023-04-20T03:33:30;94885.97;;;9.87;100.00
740;BME280;354;42.694;23.336;2023-04-20T03:35:56;94881.50;;;9.94;100.00
740;BME280;354;42.694;23.336;2023-04-20T03:38:21;94892.56;;;9.96;100.00
740;BME280;354;42.694;23.336;2023-04-20T03:40:47;94891.13;;;10.00;100.00
740;BME280;354;42.694;23.336;2023-04-20T03:43:12;94884.78;;;10.08;100.00
740;BME280;354;42.694;23.336;2023-04-20T03:45:38;94880.56;;;10.07;100.00
740;BME280;354;42.694;23.336;2023-04-20T03:48:03;94885.16;;;10.12;100.00
740;BME280;354;42.694;23.336;2023-04-20T03:50:29;94882.91;;;10.15;100.00
740;BME280;354;42.694;23.336;2023-04-20T03:52:55;94886.53;;;10.14;100.00
740;BME280;354;42.694;23.336;2023-04-20T03:55:21;94891.41;;;10.11;100.00
740;BME280;354;42.694;23.336;2023-04-20T03:57:47;94891.06;;;10.07;100.00
740;BME280;354;42.694;23.336;2023-04-20T04:00:12;94887.19;;;10.10;100.00
740;BME280;354;42.694;23.336;2023-04-20T04:02:38;94892.59;;;10.15;100.00
740;BME280;354;42.694;23.336;2023-04-20T04:05:04;94879.00;;;9.99;100.00
740;BME280;354;42.694;23.336;2023-04-20T04:07:29;94892.75;;;10.01;100.00
740;BME280;354;42.694;23.336;2023-04-20T04:09:55;94897.38;;;9.99;100.00
740;BME280;354;42.694;23.336;2023-04-20T04:12:20;94901.56;;;10.07;100.00
740;BME280;354;42.694;23.336;2023-04-20T04:14:46;94902.16;;;10.09;100.00
740;BME280;354;42.694;23.336;2023-04-20T04:17:13;94895.72;;;10.05;100.00
740;BME280;354;42.694;23.336;2023-04-20T04:19:38;94897.34;;;10.06;100.00
740;BME280;354;42.694;23.336;2023-04-20T04:22:03;94900.16;;;10.04;100.00
740;BME280;354;42.694;23.336;2023-04-20T04:24:29;94901.09;;;10.17;100.00
740;BME280;354;42.694;23.336;2023-04-20T04:26:55;94899.63;;;10.21;100.00
740;BME280;354;42.694;23.336;2023-04-20T04:29:23;94906.91;;;10.25;100.00
740;BME280;354;42.694;23.336;2023-04-20T04:31:51;94911.78;;;10.22;100.00
740;BME280;354;42.694;23.336;2023-04-20T04:34:16;94896.09;;;10.09;100.00
740;BME280;354;42.694;23.336;2023-04-20T04:36:43;94908.53;;;10.20;100.00
740;BME280;354;42.694;23.336;2023-04-20T04:39:08;94913.78;;;10.20;100.00
740;BME280;354;42.694;23.336;2023-04-20T04:41:33;94908.31;;;10.28;100.00
740;BME280;354;42.694;23.336;2023-04-20T04:43:59;94912.38;;;10.24;100.00
740;BME280;354;42.694;23.336;2023-04-20T04:46:25;94917.06;;;10.40;100.00
740;BME280;354;42.694;23.336;2023-04-20T04:48:52;94917.81;;;10.47;100.00
740;BME280;354;42.694;23.336;2023-04-20T04:51:17;94924.81;;;10.53;100.00
740;BME280;354;42.694;23.336;2023-04-20T04:53:42;94923.75;;;10.61;100.00
740;BME280;354;42.694;23.336;2023-04-20T04:56:11;94925.03;;;10.52;100.00
740;BME280;354;42.694;23.336;2023-04-20T04:58:37;94920.16;;;10.55;100.00
740;BME280;354;42.694;23.336;2023-04-20T05:01:03;94927.34;;;10.67;100.00
740;BME280;354;42.694;23.336;2023-04-20T05:03:28;94925.84;;;10.71;100.00
740;BME280;354;42.694;23.336;2023-04-20T05:05:54;94916.81;;;10.67;100.00
740;BME280;354;42.694;23.336;2023-04-20T05:08:20;94930.13;;;10.72;100.00
740;BME280;354;42.694;23.336;2023-04-20T05:10:46;94937.84;;;10.67;100.00
740;BME280;354;42.694;23.336;2023-04-20T05:13:11;94923.91;;;10.66;100.00
740;BME280;354;42.694;23.336;2023-04-20T05:15:37;94930.53;;;10.69;100.00
740;BME280;354;42.694;23.336;2023-04-20T05:18:02;94927.63;;;10.77;100.00
740;BME280;354;42.694;23.336;2023-04-20T05:20:28;94931.22;;;10.82;100.00
740;BME280;354;42.694;23.336;2023-04-20T05:22:53;94927.91;;;10.87;100.00
740;BME280;354;42.694;23.336;2023-04-20T05:25:18;94923.00;;;10.91;100.00
740;BME280;354;42.694;23.336;2023-04-20T05:27:44;94924.97;;;10.95;100.00
740;BME280;354;42.694;23.336;2023-04-20T05:30:10;94929.53;;;10.88;100.00
740;BME280;354;42.694;23.336;2023-04-20T05:32:36;94920.28;;;10.97;100.00
740;BME280;354;42.694;23.336;2023-04-20T05:35:01;94928.00;;;10.99;100.00
740;BME280;354;42.694;23.336;2023-04-20T05:37:27;94930.69;;;11.11;100.00
740;BME280;354;42.694;23.336;2023-04-20T05:39:53;94938.34;;;11.12;100.00
740;BME280;354;42.694;23.336;2023-04-20T05:42:18;94939.28;;;11.18;100.00
740;BME280;354;42.694;23.336;2023-04-20T05:44:43;94907.28;;;11.02;100.00
740;BME280;354;42.694;23.336;2023-04-20T05:47:09;94940.66;;;11.20;100.00
740;BME280;354;42.694;23.336;2023-04-20T05:49:35;94928.44;;;11.26;100.00
740;BME280;354;42.694;23.336;2023-04-20T05:52:00;94935.41;;;11.20;100.00
740;BME280;354;42.694;23.336;2023-04-20T05:54:26;94939.28;;;11.18;100.00
740;BME280;354;42.694;23.336;2023-04-20T05:56:55;94941.59;;;11.26;100.00
740;BME280;354;42.694;23.336;2023-04-20T05:59:22;94943.81;;;11.29;100.00
740;BME280;354;42.694;23.336;2023-04-20T06:01:48;94938.63;;;11.22;100.00
740;BME280;354;42.694;23.336;2023-04-20T06:04:13;94936.50;;;11.13;100.00
740;BME280;354;42.694;23.336;2023-04-20T06:06:38;94943.75;;;11.17;100.00
740;BME280;354;42.694;23.336;2023-04-20T06:09:04;94943.53;;;10.82;100.00
740;BME280;354;42.694;23.336;2023-04-20T06:11:29;94942.56;;;10.58;100.00
740;BME280;354;42.694;23.336;2023-04-20T06:13:55;94931.09;;;10.34;100.00
740;BME280;354;42.694;23.336;2023-04-20T06:16:20;94921.09;;;10.43;100.00
740;BME280;354;42.694;23.336;2023-04-20T06:18:46;94950.91;;;10.55;100.00
740;BME280;354;42.694;23.336;2023-04-20T06:21:11;94951.09;;;10.78;100.00
740;BME280;354;42.694;23.336;2023-04-20T06:23:37;62912.72;;;-145.09;100.00
740;BME280;354;42.694;23.336;2023-04-20T06:26:03;62912.72;;;-145.09;100.00
740;BME280;354;42.694;23.336;2023-04-20T06:28:29;62912.72;;;-145.09;100.00
740;BME280;354;42.694;23.336;2023-04-20T06:30:54;62912.72;;;-145.09;100.00
740;BME280;354;42.694;23.336;2023-04-20T06:33:20;62912.72;;;-145.09;100.00
740;BME280;354;42.694;23.336;2023-04-20T06:35:45;62912.72;;;-145.09;100.00
740;BME280;354;42.694;23.336;2023-04-20T06:38:10;62912.72;;;-145.09;100.00
740;BME280;354;42.694;23.336;2023-04-20T06:40:36;62912.72;;;-145.09;100.00
740;BME280;354;42.694;23.336;2023-04-20T06:43:01;62912.72;;;-145.09;100.00
740;BME280;354;42.694;23.336;2023-04-20T06:45:27;62912.72;;;-145.09;100.00
740;BME280;354;42.694;23.336;2023-04-20T06:47:52;62912.72;;;-145.09;100.00
740;BME280;354;42.694;23.336;2023-04-20T06:50:17;62912.72;;;-145.09;100.00
740;BME280;354;42.694;23.336;2023-04-20T06:52:43;62912.72;;;-145.09;100.00
740;BME280;354;42.694;23.336;2023-04-20T06:55:09;62912.72;;;-145.09;100.00
740;BME280;354;42.694;23.336;2023-04-20T06:57:35;62912.72;;;-145.09;100.00
740;BME280;354;42.694;23.336;2023-04-20T07:00:04;62912.72;;;-145.09;100.00
740;BME280;354;42.694;23.336;2023-04-20T07:02:40;62912.72;;;-145.09;100.00
740;BME280;354;42.694;23.336;2023-04-20T07:05:06;62912.72;;;-145.09;100.00
740;BME280;354;42.694;23.336;2023-04-20T07:07:32;62912.72;;;-145.09;100.00
740;BME280;354;42.694;23.336;2023-04-20T07:09:57;62912.72;;;-145.09;100.00
740;BME280;354;42.694;23.336;2023-04-20T07:12:22;62912.72;;;-145.09;100.00
740;BME280;354;42.694;23.336;2023-04-20T07:14:48;62912.72;;;-145.09;100.00
740;BME280;354;42.694;23.336;2023-04-20T07:17:13;62912.72;;;-145.09;100.00
740;BME280;354;42.694;23.336;2023-04-20T07:19:38;62912.72;;;-145.09;100.00
740;BME280;354;42.694;23.336;2023-04-20T07:22:04;62912.72;;;-145.09;100.00
740;BME280;354;42.694;23.336;2023-04-20T07:24:29;62912.72;;;-145.09;100.00
740;BME280;354;42.694;23.336;2023-04-20T07:26:55;62912.72;;;-145.09;100.00
740;BME280;354;42.694;23.336;2023-04-20T07:29:21;62912.72;;;-145.09;100.00
740;BME280;354;42.694;23.336;2023-04-20T07:31:46;62912.72;;;-145.09;100.00
740;BME280;354;42.694;23.336;2023-04-20T07:34:12;62912.72;;;-145.09;100.00
740;BME280;354;42.694;23.336;2023-04-20T07:36:37;62912.72;;;-145.09;100.00
740;BME280;354;42.694;23.336;2023-04-20T07:39:03;62912.72;;;-145.09;100.00
740;BME280;354;42.694;23.336;2023-04-20T07:41:29;62912.72;;;-145.09;100.00
740;BME280;354;42.694;23.336;2023-04-20T07:43:54;62912.72;;;-145.09;100.00
740;BME280;354;42.694;23.336;2023-04-20T07:46:21;62912.72;;;-145.09;100.00
740;BME280;354;42.694;23.336;2023-04-20T07:48:47;62912.72;;;-145.09;100.00
740;BME280;354;42.694;23.336;2023-04-20T07:51:12;62912.72;;;-145.09;100.00
740;BME280;354;42.694;23.336;2023-04-20T07:53:38;62912.72;;;-145.09;100.00
740;BME280;354;42.694;23.336;2023-04-20T07:56:03;62912.72;;;-145.09;100.00
740;BME280;354;42.694;23.336;2023-04-20T07:58:29;62912.72;;;-145.09;100.00
740;BME280;354;42.694;23.336;2023-04-20T08:00:55;62912.72;;;-145.09;100.00
740;BME280;354;42.694;23.336;2023-04-20T08:03:20;62912.72;;;-145.09;100.00
740;BME280;354;42.694;23.336;2023-04-20T08:05:45;62912.72;;;-145.09;100.00
740;BME280;354;42.694;23.336;2023-04-20T08:08:11;62912.72;;;-145.09;100.00
740;BME280;354;42.694;23.336;2023-04-20T08:10:36;62912.72;;;-145.09;100.00
740;BME280;354;42.694;23.336;2023-04-20T08:13:02;62912.72;;;-145.09;100.00
740;BME280;354;42.694;23.336;2023-04-20T08:15:27;62912.72;;;-145.09;100.00
740;BME280;354;42.694;23.336;2023-04-20T08:17:53;62912.72;;;-145.09;100.00
740;BME280;354;42.694;23.336;2023-04-20T08:20:18;62912.72;;;-145.09;100.00
740;BME280;354;42.694;23.336;2023-04-20T08:22:44;62912.72;;;-145.09;100.00
740;BME280;354;42.694;23.336;2023-04-20T08:25:09;62912.72;;;-145.09;100.00
740;BME280;354;42.694;23.336;2023-04-20T08:27:35;62912.72;;;-145.09;100.00
740;BME280;354;42.694;23.336;2023-04-20T08:30:01;62912.72;;;-145.09;100.00
740;BME280;354;42.694;23.336;2023-04-20T08:32:28;62912.72;;;-145.09;100.00
740;BME280;354;42.694;23.336;2023-04-20T08:34:54;62912.72;;;-145.09;100.00
740;BME280;354;42.694;23.336;2023-04-20T08:37:19;62912.72;;;-145.09;100.00
740;BME280;354;42.694;23.336;2023-04-20T08:39:45;62912.72;;;-145.09;100.00
740;BME280;354;42.694;23.336;2023-04-20T08:42:11;62912.72;;;-145.09;100.00
740;BME280;354;42.694;23.336;2023-04-20T08:44:36;62912.72;;;-145.09;100.00
740;BME280;354;42.694;23.336;2023-04-20T08:47:02;62912.72;;;-145.09;100.00
740;BME280;354;42.694;23.336;2023-04-20T08:49:28;62912.72;;;-145.09;100.00
740;BME280;354;42.694;23.336;2023-04-20T08:51:57;62912.72;;;-145.09;100.00
740;BME280;354;42.694;23.336;2023-04-20T08:54:22;62912.72;;;-145.09;100.00
740;BME280;354;42.694;23.336;2023-04-20T08:56:48;62912.72;;;-145.09;100.00
740;BME280;354;42.694;23.336;2023-04-20T08:59:14;62912.72;;;-145.09;100.00
740;BME280;354;42.694;23.336;2023-04-20T09:01:41;62912.72;;;-145.09;100.00
740;BME280;354;42.694;23.336;2023-04-20T09:04:17;62912.72;;;-145.09;100.00
740;BME280;354;42.694;23.336;2023-04-20T09:06:44;62912.72;;;-145.09;100.00
740;BME280;354;42.694;23.336;2023-04-20T09:09:10;62912.72;;;-145.09;100.00
740;BME280;354;42.694;23.336;2023-04-20T09:11:36;62912.72;;;-145.09;100.00
740;BME280;354;42.694;23.336;2023-04-20T09:14:04;62912.72;;;-145.09;100.00
740;BME280;354;42.694;23.336;2023-04-20T09:16:35;62912.72;;;-145.09;100.00
740;BME280;354;42.694;23.336;2023-04-20T09:19:01;62912.72;;;-145.09;100.00
740;BME280;354;42.694;23.336;2023-04-20T09:21:27;62912.72;;;-145.09;100.00
740;BME280;354;42.694;23.336;2023-04-20T09:24:01;62912.72;;;-145.09;100.00
740;BME280;354;42.694;23.336;2023-04-20T09:26:34;62912.72;;;-145.09;100.00
740;BME280;354;42.694;23.336;2023-04-20T09:29:02;62912.72;;;-145.09;100.00
740;BME280;354;42.694;23.336;2023-04-20T09:31:28;62912.72;;;-145.09;100.00
740;BME280;354;42.694;23.336;2023-04-20T09:34:01;62912.72;;;-145.09;100.00
740;BME280;354;42.694;23.336;2023-04-20T09:36:41;62912.72;;;-145.09;100.00
740;BME280;354;42.694;23.336;2023-04-20T09:39:12;62912.72;;;-145.09;100.00
740;BME280;354;42.694;23.336;2023-04-20T09:41:39;62912.72;;;-145.09;100.00
740;BME280;354;42.694;23.336;2023-04-20T09:44:06;62912.72;;;-145.09;100.00
740;BME280;354;42.694;23.336;2023-04-20T09:46:37;62912.72;;;-145.09;100.00
740;BME280;354;42.694;23.336;2023-04-20T09:49:04;62912.72;;;-145.09;100.00
740;BME280;354;42.694;23.336;2023-04-20T09:51:32;62912.72;;;-145.09;100.00
740;BME280;354;42.694;23.336;2023-04-20T09:53:59;62912.72;;;-145.09;100.00
740;BME280;354;42.694;23.336;2023-04-20T09:56:26;62912.72;;;-145.09;100.00
740;BME280;354;42.694;23.336;2023-04-20T09:58:53;62912.72;;;-145.09;100.00
740;BME280;354;42.694;23.336;2023-04-20T10:01:19;62912.72;;;-145.09;100.00
740;BME280;354;42.694;23.336;2023-04-20T10:03:45;62912.72;;;-145.09;100.00
740;BME280;354;42.694;23.336;2023-04-20T10:08:50;62912.72;;;-145.09;100.00
740;BME280;354;42.694;23.336;2023-04-20T10:11:36;62912.72;;;-145.09;100.00
740;BME280;354;42.694;23.336;2023-04-20T10:17:01;62912.72;;;-145.09;100.00
740;BME280;354;42.694;23.336;2023-04-20T10:19:39;62912.72;;;-145.09;100.00
740;BME280;354;42.694;23.336;2023-04-20T10:22:06;62912.72;;;-145.09;100.00
740;BME280;354;42.694;23.336;2023-04-20T10:24:32;62912.72;;;-145.09;100.00
740;BME280;354;42.694;23.336;2023-04-20T10:26:58;62912.72;;;-145.09;100.00
740;BME280;354;42.694;23.336;2023-04-20T10:29:24;62912.72;;;-145.09;100.00
740;BME280;354;42.694;23.336;2023-04-20T10:31:50;62912.72;;;-145.09;100.00
740;BME280;354;42.694;23.336;2023-04-20T10:34:16;62912.72;;;-145.09;100.00
740;BME280;354;42.694;23.336;2023-04-20T10:36:42;62912.72;;;-145.09;100.00
740;BME280;354;42.694;23.336;2023-04-20T10:39:15;62912.72;;;-145.09;100.00
740;BME280;354;42.694;23.336;2023-04-20T10:41:55;62912.72;;;-145.09;100.00
740;BME280;354;42.694;23.336;2023-04-20T10:44:23;62912.72;;;-145.09;100.00
740;BME280;354;42.694;23.336;2023-04-20T10:46:49;62912.72;;;-145.09;100.00
740;BME280;354;42.694;23.336;2023-04-20T10:49:15;62912.72;;;-145.09;100.00
740;BME280;354;42.694;23.336;2023-04-20T10:51:51;62912.72;;;-145.09;100.00
740;BME280;354;42.694;23.336;2023-04-20T10:54:17;62912.72;;;-145.09;100.00
740;BME280;354;42.694;23.336;2023-04-20T10:56:49;62912.72;;;-145.09;100.00
740;BME280;354;42.694;23.336;2023-04-20T10:59:23;62912.72;;;-145.09;100.00
740;BME280;354;42.694;23.336;2023-04-20T11:01:50;62912.72;;;-145.09;100.00
740;BME280;354;42.694;23.336;2023-04-20T11:04:16;62912.72;;;-145.09;100.00
740;BME280;354;42.694;23.336;2023-04-20T11:06:43;62912.72;;;-145.09;100.00
740;BME280;354;42.694;23.336;2023-04-20T11:09:20;62912.72;;;-145.09;100.00
740;BME280;354;42.694;23.336;2023-04-20T11:11:57;62912.72;;;-145.09;100.00
740;BME280;354;42.694;23.336;2023-04-20T11:14:23;62912.72;;;-145.09;100.00
740;BME280;354;42.694;23.336;2023-04-20T11:16:52;62912.72;;;-145.09;100.00
740;BME280;354;42.694;23.336;2023-04-20T11:19:31;62912.72;;;-145.09;100.00
740;BME280;354;42.694;23.336;2023-04-20T11:21:57;62912.72;;;-145.09;100.00
740;BME280;354;42.694;23.336;2023-04-20T11:24:25;62912.72;;;-145.09;100.00
740;BME280;354;42.694;23.336;2023-04-20T11:26:51;62912.72;;;-145.09;100.00
740;BME280;354;42.694;23.336;2023-04-20T11:29:37;62912.72;;;-145.09;100.00
740;BME280;354;42.694;23.336;2023-04-20T11:32:07;62912.72;;;-145.09;100.00
740;BME280;354;42.694;23.336;2023-04-20T11:34:34;62912.72;;;-145.09;100.00
740;BME280;354;42.694;23.336;2023-04-20T11:37:07;62912.72;;;-145.09;100.00
740;BME280;354;42.694;23.336;2023-04-20T11:39:33;62912.72;;;-145.09;100.00
740;BME280;354;42.694;23.336;2023-04-20T11:41:59;62912.72;;;-145.09;100.00
740;BME280;354;42.694;23.336;2023-04-20T11:44:25;62912.72;;;-145.09;100.00
740;BME280;354;42.694;23.336;2023-04-20T11:46:52;62912.72;;;-145.09;100.00
740;BME280;354;42.694;23.336;2023-04-20T11:49:19;62912.72;;;-145.09;100.00
740;BME280;354;42.694;23.336;2023-04-20T11:51:46;62912.72;;;-145.09;100.00
740;BME280;354;42.694;23.336;2023-04-20T11:54:12;62912.72;;;-145.09;100.00
740;BME280;354;42.694;23.336;2023-04-20T11:56:38;62912.72;;;-145.09;100.00
740;BME280;354;42.694;23.336;2023-04-20T11:59:06;62912.72;;;-145.09;100.00
740;BME280;354;42.694;23.336;2023-04-20T12:01:32;62912.72;;;-145.09;100.00
740;BME280;354;42.694;23.336;2023-04-20T12:03:57;62912.72;;;-145.09;100.00
740;BME280;354;42.694;23.336;2023-04-20T12:06:26;62912.72;;;-145.09;100.00
740;BME280;354;42.694;23.336;2023-04-20T12:08:51;62912.72;;;-145.09;100.00
740;BME280;354;42.694;23.336;2023-04-20T12:11:17;62912.72;;;-145.09;100.00
740;BME280;354;42.694;23.336;2023-04-20T12:13:42;62912.72;;;-145.09;100.00
740;BME280;354;42.694;23.336;2023-04-20T12:16:08;62912.72;;;-145.09;100.00
740;BME280;354;42.694;23.336;2023-04-20T12:18:33;62912.72;;;-145.09;100.00
740;BME280;354;42.694;23.336;2023-04-20T12:20:58;62912.72;;;-145.09;100.00
740;BME280;354;42.694;23.336;2023-04-20T12:23:25;62912.72;;;-145.09;100.00
740;BME280;354;42.694;23.336;2023-04-20T12:25:50;62912.72;;;-145.09;100.00
740;BME280;354;42.694;23.336;2023-04-20T12:28:16;62912.72;;;-145.09;100.00
740;BME280;354;42.694;23.336;2023-04-20T12:30:41;62912.72;;;-145.09;100.00
740;BME280;354;42.694;23.336;2023-04-20T12:33:06;62912.72;;;-145.09;100.00
740;BME280;354;42.694;23.336;2023-04-20T12:35:32;62912.72;;;-145.09;100.00
740;BME280;354;42.694;23.336;2023-04-20T12:37:57;62912.72;;;-145.09;100.00
740;BME280;354;42.694;23.336;2023-04-20T12:40:23;62912.72;;;-145.09;100.00
740;BME280;354;42.694;23.336;2023-04-20T12:42:48;62912.72;;;-145.09;100.00
740;BME280;354;42.694;23.336;2023-04-20T12:45:14;62912.72;;;-145.09;100.00
740;BME280;354;42.694;23.336;2023-04-20T12:47:40;62912.72;;;-145.09;100.00
740;BME280;354;42.694;23.336;2023-04-20T12:50:05;62912.72;;;-145.09;100.00
740;BME280;354;42.694;23.336;2023-04-20T12:52:32;62912.72;;;-145.09;100.00
740;BME280;354;42.694;23.336;2023-04-20T12:54:58;62912.72;;;-145.09;100.00
740;BME280;354;42.694;23.336;2023-04-20T12:57:24;62912.72;;;-145.09;100.00
740;BME280;354;42.694;23.336;2023-04-20T12:59:49;62912.72;;;-145.09;100.00
740;BME280;354;42.694;23.336;2023-04-20T13:02:15;62912.72;;;-145.09;100.00
740;BME280;354;42.694;23.336;2023-04-20T13:04:41;62912.72;;;-145.09;100.00
740;BME280;354;42.694;23.336;2023-04-20T13:07:06;62912.72;;;-145.09;100.00
740;BME280;354;42.694;23.336;2023-04-20T13:09:31;62912.72;;;-145.09;100.00
740;BME280;354;42.694;23.336;2023-04-20T13:11:57;62912.72;;;-145.09;100.00
740;BME280;354;42.694;23.336;2023-04-20T13:14:23;62912.72;;;-145.09;100.00